createdAt,value
2022-09-10T00:00:56.000Z,286.65
2022-09-10T00:02:23.000Z,286.62
2022-09-10T00:04:29.000Z,286.62
2022-09-10T00:05:55.000Z,286.62
2022-09-10T00:08:01.000Z,286.61
2022-09-10T00:09:28.000Z,286.61
2022-09-10T00:11:34.000Z,286.62
2022-09-10T00:13:00.000Z,286.62
2022-09-10T00:15:06.000Z,286.61
2022-09-10T00:16:33.000Z,286.61
2022-09-10T00:18:39.000Z,286.61
2022-09-10T00:20:06.000Z,286.59
2022-09-10T00:22:12.000Z,286.59
2022-09-10T00:23:38.000Z,286.62
2022-09-10T00:25:44.000Z,286.63
2022-09-10T00:27:11.000Z,286.63
2022-09-10T00:29:17.000Z,286.65
2022-09-10T00:32:08.000Z,286.68
2022-09-10T00:33:35.000Z,286.7
2022-09-10T00:35:41.000Z,286.72
2022-09-10T00:37:07.000Z,286.73
2022-09-10T00:39:13.000Z,286.75
2022-09-10T00:40:40.000Z,286.77
2022-09-10T00:42:46.000Z,286.77
2022-09-10T00:44:12.000Z,286.76
2022-09-10T00:46:18.000Z,286.77
2022-09-10T00:47:45.000Z,286.75
2022-09-10T00:49:51.000Z,286.73
2022-09-10T00:51:18.000Z,286.75
2022-09-10T00:53:24.000Z,286.76
2022-09-10T00:54:50.000Z,286.76
2022-09-10T00:56:56.000Z,286.76
2022-09-10T00:58:23.000Z,286.76
2022-09-10T01:00:29.000Z,286.77
2022-09-10T01:01:56.000Z,286.79
2022-09-10T01:04:02.000Z,286.8
2022-09-10T01:05:28.000Z,286.82
2022-09-10T01:07:35.000Z,286.83
2022-09-10T01:10:26.000Z,286.84
2022-09-10T01:11:52.000Z,286.84
2022-09-10T01:13:58.000Z,286.84
2022-09-10T01:15:25.000Z,286.86
2022-09-10T01:17:31.000Z,286.84
2022-09-10T01:18:58.000Z,286.86
2022-09-10T01:21:04.000Z,286.86
2022-09-10T01:22:30.000Z,286.86
2022-09-10T01:24:36.000Z,286.87
2022-09-10T01:26:03.000Z,286.87
2022-09-10T01:28:09.000Z,286.87
2022-09-10T01:29:35.000Z,286.84
2022-09-10T01:31:41.000Z,286.84
2022-09-10T01:33:08.000Z,286.83
2022-09-10T01:35:14.000Z,286.8
2022-09-10T01:36:41.000Z,286.79
2022-09-10T01:38:47.000Z,286.76
2022-09-10T01:40:13.000Z,286.75
2022-09-10T01:42:19.000Z,286.76
2022-09-10T01:43:46.000Z,286.76
2022-09-10T01:45:52.000Z,286.76
2022-09-10T01:48:43.000Z,286.75
2022-09-10T01:50:10.000Z,286.76
2022-09-10T01:52:16.000Z,286.76
2022-09-10T01:53:42.000Z,286.77
2022-09-10T01:55:49.000Z,286.79
2022-09-10T01:57:15.000Z,286.79
2022-09-10T01:59:21.000Z,286.79
2022-09-10T02:00:48.000Z,286.8
2022-09-10T02:02:54.000Z,286.79
2022-09-10T02:04:20.000Z,286.8
2022-09-10T02:06:26.000Z,286.79
2022-09-10T02:07:53.000Z,286.76
2022-09-10T02:09:59.000Z,286.73
2022-09-10T02:11:26.000Z,286.7
2022-09-10T02:13:32.000Z,286.7
2022-09-10T02:14:58.000Z,286.7
2022-09-10T02:17:04.000Z,286.68
2022-09-10T02:18:31.000Z,286.65
2022-09-10T02:20:37.000Z,286.65
2022-09-10T02:22:04.000Z,286.59
2022-09-10T02:24:10.000Z,286.59
2022-09-10T02:27:01.000Z,286.58
2022-09-10T02:28:28.000Z,286.59
2022-09-10T02:30:34.000Z,286.58
2022-09-10T02:32:00.000Z,286.61
2022-09-10T02:34:06.000Z,286.63
2022-09-10T02:35:33.000Z,286.65
2022-09-10T02:37:39.000Z,286.69
2022-09-10T02:39:05.000Z,286.72
2022-09-10T02:41:11.000Z,286.73
2022-09-10T02:42:38.000Z,286.76
2022-09-10T02:44:44.000Z,286.77
2022-09-10T02:46:10.000Z,286.8
2022-09-10T02:48:17.000Z,286.8
2022-09-10T02:49:43.000Z,286.82
2022-09-10T02:51:49.000Z,286.8
2022-09-10T02:53:16.000Z,286.82
2022-09-10T02:55:22.000Z,286.8
2022-09-10T02:56:48.000Z,286.79
2022-09-10T02:58:55.000Z,286.77
2022-09-10T03:00:21.000Z,286.77
2022-09-10T03:02:27.000Z,286.75
2022-09-10T03:05:18.000Z,286.75
2022-09-10T03:06:45.000Z,286.75
2022-09-10T03:08:51.000Z,286.72
2022-09-10T03:10:18.000Z,286.73
2022-09-10T03:12:24.000Z,286.72
2022-09-10T03:13:50.000Z,286.7
2022-09-10T03:15:56.000Z,286.7
2022-09-10T03:17:23.000Z,286.7
2022-09-10T03:19:29.000Z,286.69
2022-09-10T03:20:55.000Z,286.68
2022-09-10T03:23:02.000Z,286.66
2022-09-10T03:24:28.000Z,286.63
2022-09-10T03:26:34.000Z,286.61
2022-09-10T03:28:01.000Z,286.63
2022-09-10T03:30:07.000Z,286.59
2022-09-10T03:31:33.000Z,286.58
2022-09-10T03:33:39.000Z,286.58
2022-09-10T03:35:06.000Z,286.58
2022-09-10T03:37:12.000Z,286.55
2022-09-10T03:38:38.000Z,286.51
2022-09-10T03:40:45.000Z,286.51
2022-09-10T03:43:36.000Z,286.48
2022-09-10T03:45:02.000Z,286.45
2022-09-10T03:47:09.000Z,286.43
2022-09-10T03:48:35.000Z,286.43
2022-09-10T03:50:41.000Z,286.4
2022-09-10T03:52:08.000Z,286.37
2022-09-10T03:54:14.000Z,286.36
2022-09-10T03:55:40.000Z,286.33
2022-09-10T03:57:46.000Z,286.31
2022-09-10T03:59:13.000Z,286.3
2022-09-10T04:01:19.000Z,286.3
2022-09-10T04:02:46.000Z,286.29
2022-09-10T04:04:52.000Z,286.29
2022-09-10T04:06:18.000Z,286.3
2022-09-10T04:08:24.000Z,286.29
2022-09-10T04:09:51.000Z,286.3
2022-09-10T04:11:57.000Z,286.31
2022-09-10T04:13:24.000Z,286.31
2022-09-10T04:15:30.000Z,286.31
2022-09-10T04:16:56.000Z,286.33
2022-09-10T04:19:02.000Z,286.31
2022-09-10T04:21:54.000Z,286.3
2022-09-10T04:23:20.000Z,286.3
2022-09-10T04:25:26.000Z,286.3
2022-09-10T04:26:53.000Z,286.29
2022-09-10T04:28:59.000Z,286.29
2022-09-10T04:30:25.000Z,286.3
2022-09-10T04:32:31.000Z,286.3
2022-09-10T04:33:58.000Z,286.3
2022-09-10T04:36:04.000Z,286.31
2022-09-10T04:37:30.000Z,286.31
2022-09-10T04:39:36.000Z,286.31
2022-09-10T04:41:03.000Z,286.31
2022-09-10T04:43:09.000Z,286.33
2022-09-10T04:44:36.000Z,286.34
2022-09-10T04:46:42.000Z,286.34
2022-09-10T04:48:08.000Z,286.37
2022-09-10T04:50:14.000Z,286.38
2022-09-10T04:51:41.000Z,286.41
2022-09-10T04:53:47.000Z,286.44
2022-09-10T04:55:14.000Z,286.47
2022-09-10T04:57:20.000Z,286.51
2022-09-10T05:00:11.000Z,286.54
2022-09-10T05:01:38.000Z,286.55
2022-09-10T05:03:44.000Z,286.56
2022-09-10T05:05:10.000Z,286.56
2022-09-10T05:07:16.000Z,286.56
2022-09-10T05:08:43.000Z,286.58
2022-09-10T05:10:49.000Z,286.59
2022-09-10T05:12:15.000Z,286.62
2022-09-10T05:14:22.000Z,286.61
2022-09-10T05:15:48.000Z,286.59
2022-09-10T05:17:54.000Z,286.61
2022-09-10T05:19:21.000Z,286.61
2022-09-10T05:21:27.000Z,286.62
2022-09-10T05:22:53.000Z,286.61
2022-09-10T05:24:59.000Z,286.62
2022-09-10T05:26:26.000Z,286.61
2022-09-10T05:28:32.000Z,286.63
2022-09-10T05:29:58.000Z,286.63
2022-09-10T05:32:05.000Z,286.65
2022-09-10T05:33:31.000Z,286.66
2022-09-10T05:35:37.000Z,286.66
2022-09-10T05:38:29.000Z,286.66
2022-09-10T05:39:55.000Z,286.66
2022-09-10T05:42:01.000Z,286.68
2022-09-10T05:43:28.000Z,286.68
2022-09-10T05:45:34.000Z,286.69
2022-09-10T05:47:00.000Z,286.7
2022-09-10T05:49:07.000Z,286.7
2022-09-10T05:50:33.000Z,286.72
2022-09-10T05:52:39.000Z,286.73
2022-09-10T05:54:06.000Z,286.73
2022-09-10T05:56:12.000Z,286.73
2022-09-10T05:57:38.000Z,286.76
2022-09-10T05:59:44.000Z,286.77
2022-09-10T06:01:11.000Z,286.79
2022-09-10T06:03:17.000Z,286.8
2022-09-10T06:04:44.000Z,286.82
2022-09-10T06:06:50.000Z,286.83
2022-09-10T06:08:16.000Z,286.83
2022-09-10T06:10:22.000Z,286.86
2022-09-10T06:11:49.000Z,286.88
2022-09-10T06:13:55.000Z,286.9
2022-09-10T06:16:46.000Z,286.93
2022-09-10T06:18:13.000Z,286.94
2022-09-10T06:20:19.000Z,286.95
2022-09-10T06:21:45.000Z,287
2022-09-10T06:23:51.000Z,287.01
2022-09-10T06:25:18.000Z,287.02
2022-09-10T06:27:24.000Z,287.02
2022-09-10T06:28:50.000Z,287.04
2022-09-10T06:30:57.000Z,287.07
2022-09-10T06:32:23.000Z,287.07
2022-09-10T06:34:29.000Z,287.09
2022-09-10T06:35:56.000Z,287.09
2022-09-10T06:38:02.000Z,287.09
2022-09-10T06:39:29.000Z,287.11
2022-09-10T06:41:35.000Z,287.12
2022-09-10T06:43:01.000Z,287.15
2022-09-10T06:45:07.000Z,287.16
2022-09-10T06:46:34.000Z,287.18
2022-09-10T06:49:36.000Z,287.2
2022-09-10T06:51:03.000Z,287.23
2022-09-10T06:53:09.000Z,287.24
2022-09-10T06:56:00.000Z,287.3
2022-09-10T06:57:27.000Z,287.34
2022-09-10T06:59:33.000Z,287.38
2022-09-10T07:00:59.000Z,287.46
2022-09-10T07:03:06.000Z,287.52
2022-09-10T07:04:32.000Z,287.57
2022-09-10T07:06:38.000Z,287.6
2022-09-10T07:08:05.000Z,287.63
2022-09-10T07:10:11.000Z,287.66
2022-09-10T07:11:37.000Z,287.7
2022-09-10T07:13:47.000Z,287.74
2022-09-10T07:15:14.000Z,287.77
2022-09-10T07:17:20.000Z,287.81
2022-09-10T07:18:46.000Z,287.85
2022-09-10T07:20:53.000Z,287.88
2022-09-10T07:22:19.000Z,287.89
2022-09-10T07:24:25.000Z,287.92
2022-09-10T07:25:52.000Z,287.93
2022-09-10T07:27:58.000Z,287.98
2022-09-10T07:29:24.000Z,288.02
2022-09-10T07:31:31.000Z,288.06
2022-09-10T07:34:22.000Z,288.09
2022-09-10T07:35:49.000Z,288.13
2022-09-10T07:37:55.000Z,288.14
2022-09-10T07:39:21.000Z,288.14
2022-09-10T07:41:31.000Z,288.13
2022-09-10T07:42:58.000Z,288.13
2022-09-10T07:45:04.000Z,288.17
2022-09-10T07:46:30.000Z,288.25
2022-09-10T07:48:36.000Z,288.35
2022-09-10T07:50:03.000Z,288.42
2022-09-10T07:52:09.000Z,288.45
2022-09-10T07:53:36.000Z,288.54
2022-09-10T07:55:42.000Z,288.64
2022-09-10T07:57:08.000Z,288.75
2022-09-10T07:59:14.000Z,288.75
2022-09-10T08:00:41.000Z,288.71
2022-09-10T08:02:47.000Z,288.68
2022-09-10T08:04:14.000Z,288.67
2022-09-10T08:06:20.000Z,288.67
2022-09-10T08:07:46.000Z,288.67
2022-09-10T08:09:52.000Z,288.67
2022-09-10T08:12:43.000Z,288.71
2022-09-10T08:14:10.000Z,288.7
2022-09-10T08:16:16.000Z,288.68
2022-09-10T08:17:42.000Z,288.64
2022-09-10T08:19:49.000Z,288.6
2022-09-10T08:21:15.000Z,288.56
2022-09-10T08:23:22.000Z,288.53
2022-09-10T08:24:48.000Z,288.49
2022-09-10T08:26:54.000Z,288.5
2022-09-10T08:28:21.000Z,288.49
2022-09-10T08:30:31.000Z,288.49
2022-09-10T08:31:58.000Z,288.5
2022-09-10T08:34:04.000Z,288.53
2022-09-10T08:35:30.000Z,288.51
2022-09-10T08:37:36.000Z,288.5
2022-09-10T08:39:03.000Z,288.47
2022-09-10T08:41:14.000Z,288.45
2022-09-10T08:42:40.000Z,288.42
2022-09-10T08:44:47.000Z,288.4
2022-09-10T08:46:13.000Z,288.39
2022-09-10T08:48:19.000Z,288.39
2022-09-10T08:51:11.000Z,288.39
2022-09-10T08:52:37.000Z,288.42
2022-09-10T08:54:44.000Z,288.46
2022-09-10T08:56:10.000Z,288.49
2022-09-10T08:58:16.000Z,288.56
2022-09-10T08:59:43.000Z,288.6
2022-09-10T09:01:49.000Z,288.7
2022-09-10T09:03:15.000Z,288.83
2022-09-10T09:05:22.000Z,288.93
2022-09-10T09:29:10.000Z,289.74
2022-09-10T09:31:16.000Z,289.76
2022-09-10T09:34:07.000Z,289.76
2022-09-10T09:35:34.000Z,289.77
2022-09-10T09:37:40.000Z,289.8
2022-09-10T09:39:06.000Z,289.81
2022-09-10T09:41:12.000Z,289.79
2022-09-10T09:42:39.000Z,289.86
2022-09-10T09:44:45.000Z,289.88
2022-09-10T09:46:12.000Z,289.93
2022-09-10T09:48:18.000Z,290.01
2022-09-10T09:49:44.000Z,290.09
2022-09-10T09:51:50.000Z,290.18
2022-09-10T09:53:17.000Z,290.25
2022-09-10T09:55:23.000Z,290.37
2022-09-10T09:56:49.000Z,290.44
2022-09-10T09:58:56.000Z,290.44
2022-09-10T10:00:22.000Z,290.34
2022-09-10T10:02:28.000Z,290.26
2022-09-10T10:03:55.000Z,290.09
2022-09-10T10:06:01.000Z,289.9
2022-09-10T10:07:27.000Z,289.81
2022-09-10T10:09:34.000Z,289.77
2022-09-10T10:12:25.000Z,289.73
2022-09-10T10:13:51.000Z,289.69
2022-09-10T10:15:57.000Z,289.65
2022-09-10T10:17:24.000Z,289.66
2022-09-10T10:19:30.000Z,289.69
2022-09-10T10:20:56.000Z,289.69
2022-09-10T10:23:03.000Z,289.77
2022-09-10T10:24:29.000Z,289.86
2022-09-10T10:26:35.000Z,289.93
2022-09-10T10:28:02.000Z,289.94
2022-09-10T10:30:08.000Z,289.94
2022-09-10T10:31:34.000Z,289.91
2022-09-10T10:33:40.000Z,289.84
2022-09-10T10:35:07.000Z,289.8
2022-09-10T10:37:13.000Z,289.76
2022-09-10T10:38:40.000Z,289.68
2022-09-10T10:40:46.000Z,289.58
2022-09-10T10:42:13.000Z,289.46
2022-09-10T10:44:19.000Z,289.33
2022-09-10T10:45:45.000Z,289.21
2022-09-10T10:47:51.000Z,289.16
2022-09-10T10:50:42.000Z,289.05
2022-09-10T10:52:09.000Z,288.98
2022-09-10T10:54:15.000Z,288.91
2022-09-10T10:55:41.000Z,288.96
2022-09-10T10:57:48.000Z,288.98
2022-09-10T10:59:14.000Z,289.04
2022-09-10T11:01:20.000Z,289.12
2022-09-10T11:02:47.000Z,289.21
2022-09-10T11:04:53.000Z,289.28
2022-09-10T11:06:19.000Z,289.25
2022-09-10T11:08:26.000Z,289.22
2022-09-10T11:09:52.000Z,289.23
2022-09-10T11:11:58.000Z,289.32
2022-09-10T11:13:25.000Z,289.39
2022-09-10T11:15:31.000Z,289.44
2022-09-10T11:16:57.000Z,289.55
2022-09-10T11:19:04.000Z,289.59
2022-09-10T11:20:31.000Z,289.62
2022-09-10T11:22:37.000Z,289.69
2022-09-10T11:24:04.000Z,289.8
2022-09-10T11:26:10.000Z,289.88
2022-09-10T11:29:01.000Z,289.95
2022-09-10T11:30:28.000Z,290.01
2022-09-10T11:32:34.000Z,290.06
2022-09-10T11:34:00.000Z,290.11
2022-09-10T11:36:06.000Z,290.13
2022-09-10T11:37:33.000Z,290.13
2022-09-10T11:39:39.000Z,290.19
2022-09-10T11:41:05.000Z,290.25
2022-09-10T11:43:12.000Z,290.31
2022-09-10T11:44:38.000Z,290.33
2022-09-10T11:46:44.000Z,290.3
2022-09-10T11:48:11.000Z,290.26
2022-09-10T11:50:17.000Z,290.22
2022-09-10T11:51:43.000Z,290.15
2022-09-10T11:53:49.000Z,290.18
2022-09-10T11:55:16.000Z,290.15
2022-09-10T11:57:22.000Z,290.15
2022-09-10T11:58:48.000Z,290.13
2022-09-10T12:00:55.000Z,290.16
2022-09-10T12:02:21.000Z,290.15
2022-09-10T12:04:27.000Z,290.18
2022-09-10T12:07:19.000Z,290.15
2022-09-10T12:08:45.000Z,290.13
2022-09-10T12:10:51.000Z,290.04
2022-09-10T12:12:18.000Z,290.01
2022-09-10T12:14:24.000Z,289.98
2022-09-10T12:15:50.000Z,290
2022-09-10T12:17:56.000Z,290
2022-09-10T12:19:23.000Z,289.95
2022-09-10T12:21:29.000Z,289.91
2022-09-10T12:22:56.000Z,289.83
2022-09-10T12:25:02.000Z,289.79
2022-09-10T12:26:28.000Z,289.79
2022-09-10T12:28:34.000Z,289.81
2022-09-10T12:30:01.000Z,289.81
2022-09-10T12:32:07.000Z,289.86
2022-09-10T12:33:33.000Z,289.86
2022-09-10T12:35:39.000Z,289.83
2022-09-10T12:37:06.000Z,289.83
2022-09-10T12:39:12.000Z,289.88
2022-09-10T12:40:39.000Z,289.97
2022-09-10T12:42:45.000Z,290.05
2022-09-10T12:45:36.000Z,290.23
2022-09-10T12:47:02.000Z,290.37
2022-09-10T12:49:09.000Z,290.44
2022-09-10T12:50:35.000Z,290.53
2022-09-10T12:52:41.000Z,290.56
2022-09-10T12:54:08.000Z,290.53
2022-09-10T12:56:14.000Z,290.53
2022-09-10T12:57:42.000Z,290.58
2022-09-10T12:59:48.000Z,290.58
2022-09-10T13:01:14.000Z,290.58
2022-09-10T13:03:21.000Z,290.58
2022-09-10T13:04:47.000Z,290.56
2022-09-10T13:06:53.000Z,290.48
2022-09-10T13:08:20.000Z,290.46
2022-09-10T13:10:26.000Z,290.49
2022-09-10T13:11:52.000Z,290.45
2022-09-10T13:13:58.000Z,290.41
2022-09-10T13:15:26.000Z,290.33
2022-09-10T13:17:32.000Z,290.25
2022-09-10T13:18:59.000Z,290.12
2022-09-10T13:21:05.000Z,290.02
2022-09-10T13:23:56.000Z,289.9
2022-09-10T13:25:22.000Z,289.79
2022-09-10T13:27:29.000Z,289.69
2022-09-10T13:28:55.000Z,289.61
2022-09-10T13:31:01.000Z,289.52
2022-09-10T13:32:28.000Z,289.43
2022-09-10T13:34:34.000Z,289.4
2022-09-10T13:44:57.000Z,289.1
2022-09-10T13:47:03.000Z,289.05
2022-09-10T13:48:30.000Z,289.01
2022-09-10T13:50:36.000Z,288.97
2022-09-10T13:52:02.000Z,288.94
2022-09-10T13:54:08.000Z,288.9
2022-09-10T13:55:35.000Z,288.89
2022-09-10T13:57:41.000Z,288.83
2022-09-10T13:59:07.000Z,288.79
2022-09-10T14:01:13.000Z,288.79
2022-09-10T14:04:05.000Z,288.81
2022-09-10T14:05:31.000Z,288.82
2022-09-10T14:07:37.000Z,288.83
2022-09-10T14:09:04.000Z,288.79
2022-09-10T14:11:10.000Z,288.79
2022-09-10T14:12:36.000Z,288.81
2022-09-10T14:14:43.000Z,288.78
2022-09-10T14:16:09.000Z,288.83
2022-09-10T14:18:15.000Z,288.89
2022-09-10T14:19:42.000Z,288.9
2022-09-10T14:21:48.000Z,288.89
2022-09-10T14:23:15.000Z,288.94
2022-09-10T14:25:21.000Z,289.01
2022-09-10T14:26:47.000Z,289.04
2022-09-10T14:28:53.000Z,289.07
2022-09-10T14:30:20.000Z,289.08
2022-09-10T14:32:26.000Z,289.12
2022-09-10T14:33:53.000Z,289.21
2022-09-10T14:35:59.000Z,289.22
2022-09-10T14:37:25.000Z,289.29
2022-09-10T14:39:31.000Z,289.29
2022-09-10T14:42:23.000Z,289.3
2022-09-10T14:43:49.000Z,289.35
2022-09-10T14:45:55.000Z,289.39
2022-09-10T14:47:22.000Z,289.4
2022-09-10T14:49:28.000Z,289.42
2022-09-10T14:50:54.000Z,289.4
2022-09-10T14:53:00.000Z,289.42
2022-09-10T14:54:27.000Z,289.42
2022-09-10T14:56:33.000Z,289.4
2022-09-10T14:58:00.000Z,289.36
2022-09-10T15:00:06.000Z,289.35
2022-09-10T15:01:32.000Z,289.33
2022-09-10T15:03:39.000Z,289.33
2022-09-10T15:05:05.000Z,289.26
2022-09-10T15:07:11.000Z,289.26
2022-09-10T15:08:38.000Z,289.22
2022-09-10T15:10:44.000Z,289.19
2022-09-10T15:12:10.000Z,289.16
2022-09-10T15:14:16.000Z,289.12
2022-09-10T15:15:43.000Z,289.1
2022-09-10T15:17:49.000Z,289.1
2022-09-10T15:20:41.000Z,289.07
2022-09-10T15:22:07.000Z,289.05
2022-09-10T15:24:13.000Z,289.04
2022-09-10T15:25:40.000Z,289.01
2022-09-10T15:27:46.000Z,289
2022-09-10T15:29:12.000Z,288.97
2022-09-10T15:31:18.000Z,288.97
2022-09-10T15:32:45.000Z,288.98
2022-09-10T15:34:51.000Z,289.01
2022-09-10T15:36:18.000Z,289
2022-09-10T15:38:24.000Z,289.01
2022-09-10T15:39:50.000Z,289
2022-09-10T15:41:57.000Z,289.01
2022-09-10T15:43:23.000Z,289.03
2022-09-10T15:45:29.000Z,289.01
2022-09-10T15:46:56.000Z,289.03
2022-09-10T15:49:02.000Z,289.01
2022-09-10T15:50:28.000Z,289
2022-09-10T15:52:35.000Z,289.01
2022-09-10T15:54:01.000Z,289.01
2022-09-10T15:56:11.000Z,289.04
2022-09-10T15:59:02.000Z,289.05
2022-09-10T16:00:28.000Z,289.08
2022-09-10T16:02:35.000Z,289.12
2022-09-10T16:04:01.000Z,289.14
2022-09-10T16:06:07.000Z,289.16
2022-09-10T16:07:34.000Z,289.18
2022-09-10T16:09:40.000Z,289.19
2022-09-10T16:11:06.000Z,289.16
2022-09-10T16:13:13.000Z,289.15
2022-09-10T16:14:39.000Z,289.11
2022-09-10T16:16:45.000Z,289.1
2022-09-10T16:18:12.000Z,289.04
2022-09-10T16:20:18.000Z,289.03
2022-09-10T16:21:44.000Z,289
2022-09-10T16:23:50.000Z,288.96
2022-09-10T16:25:17.000Z,288.93
2022-09-10T16:27:23.000Z,288.93
2022-09-10T16:28:49.000Z,288.93
2022-09-10T16:30:55.000Z,288.91
2022-09-10T16:32:22.000Z,288.9
2022-09-10T16:34:28.000Z,288.9
2022-09-10T16:37:19.000Z,288.89
2022-09-10T16:38:46.000Z,288.85
2022-09-10T16:40:52.000Z,288.83
2022-09-10T16:42:18.000Z,288.81
2022-09-10T16:44:24.000Z,288.81
2022-09-10T16:45:51.000Z,288.79
2022-09-10T16:47:57.000Z,288.77
2022-09-10T16:49:30.000Z,288.74
2022-09-10T16:51:36.000Z,288.77
2022-09-10T16:53:02.000Z,288.74
2022-09-10T16:55:09.000Z,288.72
2022-09-10T16:56:35.000Z,288.72
2022-09-10T16:58:41.000Z,288.71
2022-09-10T17:00:08.000Z,288.71
2022-09-10T17:02:14.000Z,288.71
2022-09-10T17:03:40.000Z,288.7
2022-09-10T17:05:47.000Z,288.67
2022-09-10T17:07:13.000Z,288.65
2022-09-10T17:09:19.000Z,288.65
2022-09-10T17:10:46.000Z,288.65
2022-09-10T17:12:52.000Z,288.64
2022-09-10T17:15:43.000Z,288.64
2022-09-10T17:17:09.000Z,288.63
2022-09-10T17:19:15.000Z,288.63
2022-09-10T17:20:42.000Z,288.61
2022-09-10T17:22:48.000Z,288.58
2022-09-10T17:24:15.000Z,288.57
2022-09-10T17:26:21.000Z,288.56
2022-09-10T17:27:47.000Z,288.53
2022-09-10T17:29:53.000Z,288.53
2022-09-10T17:31:20.000Z,288.49
2022-09-10T17:33:26.000Z,288.46
2022-09-10T17:34:53.000Z,288.45
2022-09-10T17:36:59.000Z,288.45
2022-09-10T17:38:26.000Z,288.42
2022-09-10T17:40:32.000Z,288.4
2022-09-10T17:41:59.000Z,288.36
2022-09-10T17:44:05.000Z,288.36
2022-09-10T17:45:31.000Z,288.35
2022-09-10T17:47:37.000Z,288.35
2022-09-10T17:49:04.000Z,288.35
2022-09-10T17:51:10.000Z,288.35
2022-09-10T17:54:01.000Z,288.33
2022-09-10T17:55:28.000Z,288.32
2022-09-10T17:57:39.000Z,288.32
2022-09-10T17:59:06.000Z,288.31
2022-09-10T18:01:12.000Z,288.31
2022-09-10T18:02:38.000Z,288.29
2022-09-10T18:04:44.000Z,288.25
2022-09-10T18:06:11.000Z,288.23
2022-09-10T18:08:17.000Z,288.2
2022-09-10T18:09:43.000Z,288.2
2022-09-10T18:11:49.000Z,288.18
2022-09-10T18:13:16.000Z,288.14
2022-09-10T18:15:22.000Z,288.14
2022-09-10T18:16:48.000Z,288.13
2022-09-10T18:18:54.000Z,288.12
2022-09-10T18:20:21.000Z,288.09
2022-09-10T18:22:27.000Z,288.09
2022-09-10T18:23:54.000Z,288.07
2022-09-10T18:26:00.000Z,288.07
2022-09-10T18:27:26.000Z,288.05
2022-09-10T18:29:32.000Z,288.05
2022-09-10T18:32:24.000Z,288.03
2022-09-10T18:33:52.000Z,288.02
2022-09-10T18:35:58.000Z,288.03
2022-09-10T18:37:25.000Z,288
2022-09-10T18:39:31.000Z,287.99
2022-09-10T18:40:57.000Z,287.95
2022-09-10T18:43:03.000Z,287.93
2022-09-10T18:44:30.000Z,287.95
2022-09-10T18:46:36.000Z,287.93
2022-09-10T18:48:03.000Z,287.91
2022-09-10T18:50:09.000Z,287.89
2022-09-10T18:51:35.000Z,287.88
2022-09-10T18:53:42.000Z,287.84
2022-09-10T18:55:08.000Z,287.82
2022-09-10T18:57:14.000Z,287.8
2022-09-10T18:58:41.000Z,287.8
2022-09-10T19:00:47.000Z,287.8
2022-09-10T19:02:13.000Z,287.78
2022-09-10T19:04:20.000Z,287.75
2022-09-10T19:05:46.000Z,287.75
2022-09-10T19:07:53.000Z,287.75
2022-09-10T19:10:44.000Z,287.73
2022-09-10T19:12:10.000Z,287.71
2022-09-10T19:14:16.000Z,287.7
2022-09-10T19:15:43.000Z,287.68
2022-09-10T19:17:49.000Z,287.67
2022-09-10T19:19:15.000Z,287.68
2022-09-10T19:21:21.000Z,287.68
2022-09-10T19:22:48.000Z,287.68
2022-09-10T19:24:54.000Z,287.7
2022-09-10T19:26:22.000Z,287.68
2022-09-10T19:28:28.000Z,287.7
2022-09-10T19:29:55.000Z,287.7
2022-09-10T19:32:01.000Z,287.71
2022-09-10T19:33:27.000Z,287.71
2022-09-10T19:35:33.000Z,287.71
2022-09-10T19:37:00.000Z,287.71
2022-09-10T19:39:06.000Z,287.71
2022-09-10T19:40:32.000Z,287.71
2022-09-10T19:42:38.000Z,287.71
2022-09-10T19:44:05.000Z,287.7
2022-09-10T19:46:11.000Z,287.7
2022-09-10T19:49:02.000Z,287.68
2022-09-10T19:50:29.000Z,287.67
2022-09-10T19:52:35.000Z,287.67
2022-09-10T19:54:01.000Z,287.67
2022-09-10T19:56:08.000Z,287.67
2022-09-10T19:57:34.000Z,287.67
2022-09-10T19:59:40.000Z,287.68
2022-09-10T20:01:07.000Z,287.7
2022-09-10T20:03:13.000Z,287.73
2022-09-10T20:04:39.000Z,287.71
2022-09-10T20:06:45.000Z,287.71
2022-09-10T20:08:12.000Z,287.71
2022-09-10T20:10:18.000Z,287.7
2022-09-10T20:11:45.000Z,287.7
2022-09-10T20:13:51.000Z,287.7
2022-09-10T20:15:17.000Z,287.7
2022-09-10T20:17:23.000Z,287.7
2022-09-10T20:18:50.000Z,287.7
2022-09-10T20:20:56.000Z,287.7
2022-09-10T20:22:23.000Z,287.73
2022-09-10T20:24:29.000Z,287.68
2022-09-10T20:27:20.000Z,287.68
2022-09-10T20:28:47.000Z,287.67
2022-09-10T20:30:53.000Z,287.67
2022-09-10T20:32:19.000Z,287.64
2022-09-10T20:34:26.000Z,287.66
2022-09-10T20:35:52.000Z,287.64
2022-09-10T20:37:58.000Z,287.64
2022-09-10T20:39:25.000Z,287.66
2022-09-10T20:41:31.000Z,287.63
2022-09-10T20:42:57.000Z,287.6
2022-09-10T20:45:03.000Z,287.59
2022-09-10T20:46:30.000Z,287.56
2022-09-10T20:48:36.000Z,287.56
2022-09-10T20:50:03.000Z,287.56
2022-09-10T20:52:09.000Z,287.57
2022-09-10T20:53:35.000Z,287.56
2022-09-10T20:55:41.000Z,287.57
2022-09-10T20:57:08.000Z,287.54
2022-09-10T20:59:14.000Z,287.56
2022-09-10T21:00:41.000Z,287.53
2022-09-10T21:02:47.000Z,287.53
2022-09-10T21:05:38.000Z,287.52
2022-09-10T21:07:05.000Z,287.5
2022-09-10T21:09:11.000Z,287.49
2022-09-10T21:10:37.000Z,287.49
2022-09-10T21:12:43.000Z,287.48
2022-09-10T21:14:10.000Z,287.48
2022-09-10T21:16:16.000Z,287.48
2022-09-10T21:17:42.000Z,287.46
2022-09-10T21:19:49.000Z,287.46
2022-09-10T21:21:15.000Z,287.48
2022-09-10T21:23:21.000Z,287.49
2022-09-10T21:24:48.000Z,287.49
2022-09-10T21:26:54.000Z,287.49
2022-09-10T21:28:20.000Z,287.5
2022-09-10T21:30:26.000Z,287.5
2022-09-10T21:31:53.000Z,287.49
2022-09-10T21:33:59.000Z,287.5
2022-09-10T21:35:29.000Z,287.49
2022-09-10T21:37:35.000Z,287.48
2022-09-10T21:39:02.000Z,287.48
2022-09-10T21:41:08.000Z,287.46
2022-09-10T21:43:59.000Z,287.42
2022-09-10T21:45:25.000Z,287.42
2022-09-10T21:47:32.000Z,287.4
2022-09-10T21:48:58.000Z,287.41
2022-09-10T21:51:04.000Z,287.4
2022-09-10T21:52:31.000Z,287.4
2022-09-10T21:54:37.000Z,287.38
2022-09-10T21:56:04.000Z,287.38
2022-09-10T21:58:10.000Z,287.34
2022-09-10T21:59:36.000Z,287.33
2022-09-10T22:01:42.000Z,287.31
2022-09-10T22:03:09.000Z,287.31
2022-09-10T22:05:15.000Z,287.3
2022-09-10T22:06:42.000Z,287.3
2022-09-10T22:08:48.000Z,287.28
2022-09-10T22:10:14.000Z,287.3
2022-09-10T22:12:20.000Z,287.3
2022-09-10T22:13:47.000Z,287.28
2022-09-10T22:15:53.000Z,287.27
2022-09-10T22:17:20.000Z,287.28
2022-09-10T22:19:26.000Z,287.27
2022-09-10T22:22:17.000Z,287.27
2022-09-10T22:23:44.000Z,287.27
2022-09-10T22:25:50.000Z,287.27
2022-09-10T22:27:16.000Z,287.27
2022-09-10T22:29:22.000Z,287.26
2022-09-10T22:30:49.000Z,287.24
2022-09-10T22:32:55.000Z,287.24
2022-09-10T22:34:21.000Z,287.24
2022-09-10T22:36:28.000Z,287.24
2022-09-10T22:37:54.000Z,287.26
2022-09-10T22:40:00.000Z,287.26
2022-09-10T22:41:27.000Z,287.26
2022-09-10T22:43:33.000Z,287.26
2022-09-10T22:44:59.000Z,287.24
2022-09-10T22:47:05.000Z,287.24
2022-09-10T22:48:32.000Z,287.24
2022-09-10T22:50:38.000Z,287.23
2022-09-10T22:52:04.000Z,287.26
2022-09-10T22:54:10.000Z,287.26
2022-09-10T22:55:37.000Z,287.27
2022-09-10T22:57:43.000Z,287.27
2022-09-10T23:00:34.000Z,287.27
2022-09-10T23:02:01.000Z,287.27
2022-09-10T23:04:07.000Z,287.28
2022-09-10T23:05:33.000Z,287.28
2022-09-10T23:07:40.000Z,287.27
2022-09-10T23:09:06.000Z,287.28
2022-09-10T23:11:12.000Z,287.27
2022-09-10T23:12:39.000Z,287.26
2022-09-10T23:14:45.000Z,287.24
2022-09-10T23:16:11.000Z,287.24
2022-09-10T23:18:17.000Z,287.26
2022-09-10T23:19:44.000Z,287.26
2022-09-10T23:21:50.000Z,287.27
2022-09-10T23:23:17.000Z,287.26
2022-09-10T23:25:23.000Z,287.27